sensor_id;sensor_type;location;lat;lon;timestamp;P1;durP1;ratioP1;P2;durP2;ratioP2
5688;SDS011;2869;50.432;8.680;2023-06-10T00:01:10;13.73;;;11.00;;
5688;SDS011;2869;50.432;8.680;2023-06-10T00:03:36;12.93;;;10.80;;
5688;SDS011;2869;50.432;8.680;2023-06-10T00:06:04;13.03;;;10.73;;
5688;SDS011;2869;50.432;8.680;2023-06-10T00:08:31;13.57;;;10.47;;
5688;SDS011;2869;50.432;8.680;2023-06-10T00:10:58;15.50;;;11.97;;
5688;SDS011;2869;50.432;8.680;2023-06-10T00:13:25;16.30;;;12.00;;
5688;SDS011;2869;50.432;8.680;2023-06-10T00:15:52;13.37;;;11.00;;
5688;SDS011;2869;50.432;8.680;2023-06-10T00:18:18;12.70;;;10.50;;
5688;SDS011;2869;50.432;8.680;2023-06-10T00:20:46;12.03;;;10.77;;
5688;SDS011;2869;50.432;8.680;2023-06-10T00:23:15;13.03;;;11.53;;
5688;SDS011;2869;50.432;8.680;2023-06-10T00:25:42;14.70;;;10.50;;
5688;SDS011;2869;50.432;8.680;2023-06-10T00:28:09;16.77;;;11.30;;
5688;SDS011;2869;50.432;8.680;2023-06-10T00:30:35;11.53;;;10.10;;
5688;SDS011;2869;50.432;8.680;2023-06-10T00:33:02;12.20;;;10.70;;
5688;SDS011;2869;50.432;8.680;2023-06-10T00:35:28;19.10;;;11.50;;
5688;SDS011;2869;50.432;8.680;2023-06-10T00:37:55;11.93;;;10.73;;
5688;SDS011;2869;50.432;8.680;2023-06-10T00:40:23;13.83;;;11.00;;
5688;SDS011;2869;50.432;8.680;2023-06-10T00:42:50;13.13;;;10.13;;
5688;SDS011;2869;50.432;8.680;2023-06-10T00:45:16;16.63;;;11.17;;
5688;SDS011;2869;50.432;8.680;2023-06-10T00:47:43;18.60;;;10.87;;
5688;SDS011;2869;50.432;8.680;2023-06-10T00:50:10;17.53;;;10.97;;
5688;SDS011;2869;50.432;8.680;2023-06-10T00:52:37;14.83;;;11.90;;
5688;SDS011;2869;50.432;8.680;2023-06-10T00:55:04;12.83;;;10.80;;
5688;SDS011;2869;50.432;8.680;2023-06-10T00:57:34;13.30;;;10.30;;
5688;SDS011;2869;50.432;8.680;2023-06-10T01:00:00;13.77;;;10.70;;
5688;SDS011;2869;50.432;8.680;2023-06-10T01:02:32;14.93;;;10.90;;
5688;SDS011;2869;50.432;8.680;2023-06-10T01:04:59;12.20;;;10.90;;
5688;SDS011;2869;50.432;8.680;2023-06-10T01:07:28;13.17;;;11.80;;
5688;SDS011;2869;50.432;8.680;2023-06-10T01:10:05;17.60;;;11.50;;
5688;SDS011;2869;50.432;8.680;2023-06-10T01:12:38;13.40;;;11.57;;
5688;SDS011;2869;50.432;8.680;2023-06-10T01:15:13;13.77;;;10.63;;
5688;SDS011;2869;50.432;8.680;2023-06-10T01:17:52;14.10;;;10.93;;
5688;SDS011;2869;50.432;8.680;2023-06-10T01:20:24;13.73;;;11.10;;
5688;SDS011;2869;50.432;8.680;2023-06-10T01:22:53;12.57;;;11.37;;
5688;SDS011;2869;50.432;8.680;2023-06-10T01:25:20;12.33;;;10.87;;
5688;SDS011;2869;50.432;8.680;2023-06-10T01:27:52;12.20;;;10.57;;
5688;SDS011;2869;50.432;8.680;2023-06-10T01:30:22;16.63;;;11.10;;
5688;SDS011;2869;50.432;8.680;2023-06-10T01:32:55;13.00;;;10.90;;
5688;SDS011;2869;50.432;8.680;2023-06-10T01:35:25;13.57;;;10.77;;
5688;SDS011;2869;50.432;8.680;2023-06-10T01:37:54;13.33;;;10.50;;
5688;SDS011;2869;50.432;8.680;2023-06-10T01:40:24;13.43;;;11.10;;
5688;SDS011;2869;50.432;8.680;2023-06-10T01:42:52;13.70;;;11.40;;
5688;SDS011;2869;50.432;8.680;2023-06-10T01:45:19;12.80;;;11.50;;
5688;SDS011;2869;50.432;8.680;2023-06-10T01:47:45;13.90;;;11.23;;
5688;SDS011;2869;50.432;8.680;2023-06-10T01:50:12;14.43;;;11.73;;
5688;SDS011;2869;50.432;8.680;2023-06-10T01:52:39;12.80;;;11.30;;
5688;SDS011;2869;50.432;8.680;2023-06-10T01:55:07;12.93;;;10.93;;
5688;SDS011;2869;50.432;8.680;2023-06-10T01:57:34;20.97;;;11.50;;
5688;SDS011;2869;50.432;8.680;2023-06-10T02:00:01;13.43;;;11.43;;
5688;SDS011;2869;50.432;8.680;2023-06-10T02:02:28;12.93;;;11.00;;
5688;SDS011;2869;50.432;8.680;2023-06-10T02:04:54;14.83;;;11.67;;
5688;SDS011;2869;50.432;8.680;2023-06-10T02:07:22;16.40;;;11.80;;
5688;SDS011;2869;50.432;8.680;2023-06-10T02:09:48;12.70;;;11.23;;
5688;SDS011;2869;50.432;8.680;2023-06-10T02:12:17;12.50;;;11.23;;
5688;SDS011;2869;50.432;8.680;2023-06-10T02:14:43;11.10;;;10.00;;
5688;SDS011;2869;50.432;8.680;2023-06-10T02:17:10;17.57;;;12.37;;
5688;SDS011;2869;50.432;8.680;2023-06-10T02:19:39;12.33;;;10.77;;
5688;SDS011;2869;50.432;8.680;2023-06-10T02:22:07;12.93;;;10.93;;
5688;SDS011;2869;50.432;8.680;2023-06-10T02:24:35;14.53;;;10.80;;
5688;SDS011;2869;50.432;8.680;2023-06-10T02:27:02;13.30;;;11.87;;
5688;SDS011;2869;50.432;8.680;2023-06-10T02:29:32;14.30;;;11.30;;
5688;SDS011;2869;50.432;8.680;2023-06-10T02:31:59;12.40;;;10.90;;
5688;SDS011;2869;50.432;8.680;2023-06-10T02:34:26;15.90;;;11.40;;
5688;SDS011;2869;50.432;8.680;2023-06-10T02:36:53;12.30;;;11.00;;
5688;SDS011;2869;50.432;8.680;2023-06-10T02:39:21;13.40;;;11.90;;
5688;SDS011;2869;50.432;8.680;2023-06-10T02:41:47;11.63;;;10.43;;
5688;SDS011;2869;50.432;8.680;2023-06-10T02:44:14;21.00;;;12.40;;
5688;SDS011;2869;50.432;8.680;2023-06-10T02:46:42;14.13;;;10.83;;
5688;SDS011;2869;50.432;8.680;2023-06-10T02:49:08;16.73;;;11.67;;
5688;SDS011;2869;50.432;8.680;2023-06-10T02:51:35;14.80;;;11.40;;
5688;SDS011;2869;50.432;8.680;2023-06-10T02:54:02;13.17;;;11.77;;
5688;SDS011;2869;50.432;8.680;2023-06-10T02:56:29;14.70;;;11.50;;
5688;SDS011;2869;50.432;8.680;2023-06-10T02:58:56;15.97;;;11.70;;
5688;SDS011;2869;50.432;8.680;2023-06-10T03:01:23;16.80;;;11.83;;
5688;SDS011;2869;50.432;8.680;2023-06-10T03:03:51;13.40;;;11.33;;
5688;SDS011;2869;50.432;8.680;2023-06-10T03:06:17;15.47;;;12.10;;
5688;SDS011;2869;50.432;8.680;2023-06-10T03:08:44;15.10;;;11.47;;
5688;SDS011;2869;50.432;8.680;2023-06-10T03:11:11;15.87;;;11.80;;
5688;SDS011;2869;50.432;8.680;2023-06-10T03:13:38;20.23;;;11.50;;
5688;SDS011;2869;50.432;8.680;2023-06-10T03:16:04;16.93;;;11.53;;
5688;SDS011;2869;50.432;8.680;2023-06-10T03:18:32;13.20;;;11.80;;
5688;SDS011;2869;50.432;8.680;2023-06-10T03:21:00;15.93;;;11.73;;
5688;SDS011;2869;50.432;8.680;2023-06-10T03:23:27;14.13;;;12.23;;
5688;SDS011;2869;50.432;8.680;2023-06-10T03:25:54;13.10;;;11.63;;
5688;SDS011;2869;50.432;8.680;2023-06-10T03:28:21;19.23;;;12.07;;
5688;SDS011;2869;50.432;8.680;2023-06-10T03:30:48;14.40;;;11.73;;
5688;SDS011;2869;50.432;8.680;2023-06-10T03:33:14;15.27;;;12.40;;
5688;SDS011;2869;50.432;8.680;2023-06-10T03:35:41;20.60;;;12.47;;
5688;SDS011;2869;50.432;8.680;2023-06-10T03:38:09;16.93;;;12.57;;
5688;SDS011;2869;50.432;8.680;2023-06-10T03:40:36;17.20;;;12.30;;
5688;SDS011;2869;50.432;8.680;2023-06-10T03:43:02;15.77;;;12.00;;
5688;SDS011;2869;50.432;8.680;2023-06-10T03:45:29;17.33;;;12.53;;
5688;SDS011;2869;50.432;8.680;2023-06-10T03:47:57;18.27;;;11.93;;
5688;SDS011;2869;50.432;8.680;2023-06-10T03:50:23;14.13;;;11.50;;
5688;SDS011;2869;50.432;8.680;2023-06-10T03:52:51;12.93;;;11.57;;
5688;SDS011;2869;50.432;8.680;2023-06-10T03:55:19;12.50;;;10.80;;
5688;SDS011;2869;50.432;8.680;2023-06-10T03:57:46;14.17;;;11.70;;
5688;SDS011;2869;50.432;8.680;2023-06-10T04:00:14;16.10;;;11.60;;
5688;SDS011;2869;50.432;8.680;2023-06-10T04:02:42;12.57;;;11.23;;
5688;SDS011;2869;50.432;8.680;2023-06-10T04:05:13;14.70;;;12.30;;
5688;SDS011;2869;50.432;8.680;2023-06-10T04:07:40;14.77;;;11.23;;
5688;SDS011;2869;50.432;8.680;2023-06-10T04:10:07;14.33;;;11.90;;
5688;SDS011;2869;50.432;8.680;2023-06-10T04:12:36;15.10;;;12.70;;
5688;SDS011;2869;50.432;8.680;2023-06-10T04:15:04;15.33;;;12.40;;
5688;SDS011;2869;50.432;8.680;2023-06-10T04:17:31;12.60;;;11.10;;
5688;SDS011;2869;50.432;8.680;2023-06-10T04:19:58;15.87;;;11.67;;
5688;SDS011;2869;50.432;8.680;2023-06-10T04:22:25;14.30;;;11.50;;
5688;SDS011;2869;50.432;8.680;2023-06-10T04:24:52;17.70;;;12.00;;
5688;SDS011;2869;50.432;8.680;2023-06-10T04:27:19;15.50;;;11.30;;
5688;SDS011;2869;50.432;8.680;2023-06-10T04:29:47;13.53;;;11.00;;
5688;SDS011;2869;50.432;8.680;2023-06-10T04:32:13;15.17;;;11.17;;
5688;SDS011;2869;50.432;8.680;2023-06-10T04:34:40;17.60;;;11.83;;
5688;SDS011;2869;50.432;8.680;2023-06-10T04:37:07;12.40;;;10.97;;
5688;SDS011;2869;50.432;8.680;2023-06-10T04:39:34;15.23;;;11.30;;
5688;SDS011;2869;50.432;8.680;2023-06-10T04:42:00;15.10;;;11.30;;
5688;SDS011;2869;50.432;8.680;2023-06-10T04:44:27;18.47;;;13.07;;
5688;SDS011;2869;50.432;8.680;2023-06-10T04:46:57;13.10;;;11.37;;
5688;SDS011;2869;50.432;8.680;2023-06-10T04:49:23;13.00;;;11.47;;
5688;SDS011;2869;50.432;8.680;2023-06-10T04:51:50;14.23;;;11.50;;
5688;SDS011;2869;50.432;8.680;2023-06-10T04:54:17;15.00;;;9.97;;
5688;SDS011;2869;50.432;8.680;2023-06-10T04:56:44;15.33;;;10.53;;
5688;SDS011;2869;50.432;8.680;2023-06-10T04:59:10;12.23;;;11.00;;
5688;SDS011;2869;50.432;8.680;2023-06-10T05:01:37;14.60;;;11.30;;
5688;SDS011;2869;50.432;8.680;2023-06-10T05:04:05;13.30;;;10.60;;
5688;SDS011;2869;50.432;8.680;2023-06-10T05:06:31;14.97;;;11.23;;
5688;SDS011;2869;50.432;8.680;2023-06-10T05:08:58;15.73;;;11.17;;
5688;SDS011;2869;50.432;8.680;2023-06-10T05:11:25;14.30;;;11.47;;
5688;SDS011;2869;50.432;8.680;2023-06-10T05:13:51;15.73;;;10.70;;
5688;SDS011;2869;50.432;8.680;2023-06-10T05:16:18;12.67;;;10.87;;
5688;SDS011;2869;50.432;8.680;2023-06-10T05:18:45;13.83;;;10.53;;
5688;SDS011;2869;50.432;8.680;2023-06-10T05:21:13;17.10;;;10.97;;
5688;SDS011;2869;50.432;8.680;2023-06-10T05:23:40;12.90;;;10.73;;
5688;SDS011;2869;50.432;8.680;2023-06-10T05:26:07;15.90;;;12.00;;
5688;SDS011;2869;50.432;8.680;2023-06-10T05:28:34;13.73;;;10.40;;
5688;SDS011;2869;50.432;8.680;2023-06-10T05:31:01;13.80;;;11.07;;
5688;SDS011;2869;50.432;8.680;2023-06-10T05:33:27;14.50;;;10.43;;
5688;SDS011;2869;50.432;8.680;2023-06-10T05:35:54;13.33;;;9.80;;
5688;SDS011;2869;50.432;8.680;2023-06-10T05:41:45;11.27;;;10.10;;
5688;SDS011;2869;50.432;8.680;2023-06-10T05:44:12;13.77;;;9.73;;
5688;SDS011;2869;50.432;8.680;2023-06-10T05:46:39;16.77;;;9.67;;
5688;SDS011;2869;50.432;8.680;2023-06-10T05:49:05;14.70;;;11.03;;
5688;SDS011;2869;50.432;8.680;2023-06-10T05:51:32;16.00;;;10.00;;
5688;SDS011;2869;50.432;8.680;2023-06-10T05:53:58;11.10;;;10.00;;
5688;SDS011;2869;50.432;8.680;2023-06-10T05:56:25;10.60;;;9.50;;
5688;SDS011;2869;50.432;8.680;2023-06-10T05:58:53;13.03;;;10.10;;
5688;SDS011;2869;50.432;8.680;2023-06-10T06:01:20;13.63;;;10.80;;
5688;SDS011;2869;50.432;8.680;2023-06-10T06:03:46;11.37;;;9.30;;
5688;SDS011;2869;50.432;8.680;2023-06-10T06:06:13;10.90;;;9.70;;
5688;SDS011;2869;50.432;8.680;2023-06-10T06:08:40;10.53;;;9.43;;
5688;SDS011;2869;50.432;8.680;2023-06-10T06:11:07;11.23;;;9.23;;
5688;SDS011;2869;50.432;8.680;2023-06-10T06:13:33;12.73;;;10.50;;
5688;SDS011;2869;50.432;8.680;2023-06-10T06:16:01;14.03;;;9.50;;
5688;SDS011;2869;50.432;8.680;2023-06-10T06:18:28;10.97;;;9.87;;
5688;SDS011;2869;50.432;8.680;2023-06-10T06:20:55;11.30;;;9.20;;
5688;SDS011;2869;50.432;8.680;2023-06-10T06:23:21;10.90;;;8.90;;
5688;SDS011;2869;50.432;8.680;2023-06-10T06:25:48;15.03;;;8.93;;
5688;SDS011;2869;50.432;8.680;2023-06-10T06:28:14;17.27;;;9.17;;
5688;SDS011;2869;50.432;8.680;2023-06-10T06:30:41;12.27;;;9.30;;
5688;SDS011;2869;50.432;8.680;2023-06-10T06:33:09;12.43;;;9.07;;
5688;SDS011;2869;50.432;8.680;2023-06-10T06:35:36;11.80;;;8.33;;
5688;SDS011;2869;50.432;8.680;2023-06-10T06:38:03;10.70;;;8.60;;
5688;SDS011;2869;50.432;8.680;2023-06-10T06:40:30;9.10;;;8.17;;
5688;SDS011;2869;50.432;8.680;2023-06-10T06:42:56;12.37;;;8.77;;
5688;SDS011;2869;50.432;8.680;2023-06-10T06:45:23;11.50;;;9.67;;
5688;SDS011;2869;50.432;8.680;2023-06-10T06:47:49;12.33;;;8.53;;
5688;SDS011;2869;50.432;8.680;2023-06-10T06:50:17;8.93;;;8.00;;
5688;SDS011;2869;50.432;8.680;2023-06-10T06:52:44;11.97;;;8.80;;
5688;SDS011;2869;50.432;8.680;2023-06-10T06:55:11;9.73;;;8.73;;
5688;SDS011;2869;50.432;8.680;2023-06-10T06:57:37;10.00;;;8.90;;
5688;SDS011;2869;50.432;8.680;2023-06-10T07:00:05;10.03;;;8.50;;
5688;SDS011;2869;50.432;8.680;2023-06-10T07:02:33;9.03;;;8.10;;
5688;SDS011;2869;50.432;8.680;2023-06-10T07:05:00;13.63;;;8.83;;
5688;SDS011;2869;50.432;8.680;2023-06-10T07:07:29;14.40;;;8.70;;
5688;SDS011;2869;50.432;8.680;2023-06-10T07:09:56;14.97;;;8.57;;
5688;SDS011;2869;50.432;8.680;2023-06-10T07:12:23;12.07;;;8.57;;
5688;SDS011;2869;50.432;8.680;2023-06-10T07:14:49;9.10;;;7.70;;
5688;SDS011;2869;50.432;8.680;2023-06-10T07:17:16;7.70;;;7.00;;
5688;SDS011;2869;50.432;8.680;2023-06-10T07:19:43;14.03;;;8.60;;
5688;SDS011;2869;50.432;8.680;2023-06-10T07:22:10;14.13;;;8.10;;
5688;SDS011;2869;50.432;8.680;2023-06-10T07:24:38;10.73;;;8.63;;
5688;SDS011;2869;50.432;8.680;2023-06-10T07:27:05;10.30;;;7.80;;
5688;SDS011;2869;50.432;8.680;2023-06-10T07:29:32;9.90;;;7.60;;
5688;SDS011;2869;50.432;8.680;2023-06-10T07:32:00;16.50;;;7.77;;
5688;SDS011;2869;50.432;8.680;2023-06-10T07:34:27;10.60;;;8.20;;
5688;SDS011;2869;50.432;8.680;2023-06-10T07:36:54;9.57;;;7.23;;
5688;SDS011;2869;50.432;8.680;2023-06-10T07:39:20;8.53;;;7.63;;
5688;SDS011;2869;50.432;8.680;2023-06-10T07:41:48;12.03;;;7.77;;
5688;SDS011;2869;50.432;8.680;2023-06-10T07:44:15;10.17;;;7.70;;
5688;SDS011;2869;50.432;8.680;2023-06-10T07:46:41;14.07;;;9.07;;
5688;SDS011;2869;50.432;8.680;2023-06-10T07:49:08;9.10;;;7.87;;
5688;SDS011;2869;50.432;8.680;2023-06-10T07:51:35;12.20;;;8.60;;
5688;SDS011;2869;50.432;8.680;2023-06-10T07:54:01;9.43;;;7.40;;
5688;SDS011;2869;50.432;8.680;2023-06-10T07:56:28;9.07;;;7.43;;
5688;SDS011;2869;50.432;8.680;2023-06-10T07:58:56;12.13;;;7.27;;
5688;SDS011;2869;50.432;8.680;2023-06-10T08:01:23;13.57;;;7.97;;
5688;SDS011;2869;50.432;8.680;2023-06-10T08:03:49;13.50;;;6.87;;
5688;SDS011;2869;50.432;8.680;2023-06-10T08:06:16;11.07;;;7.60;;
5688;SDS011;2869;50.432;8.680;2023-06-10T08:08:43;9.97;;;6.97;;
5688;SDS011;2869;50.432;8.680;2023-06-10T08:11:10;13.57;;;7.03;;
5688;SDS011;2869;50.432;8.680;2023-06-10T08:13:37;11.47;;;7.23;;
5688;SDS011;2869;50.432;8.680;2023-06-10T08:16:06;10.13;;;6.93;;
5688;SDS011;2869;50.432;8.680;2023-06-10T08:18:32;9.77;;;7.00;;
5688;SDS011;2869;50.432;8.680;2023-06-10T08:20:59;10.60;;;7.53;;
5688;SDS011;2869;50.432;8.680;2023-06-10T08:23:26;10.60;;;6.90;;
5688;SDS011;2869;50.432;8.680;2023-06-10T08:25:53;8.83;;;6.90;;
5688;SDS011;2869;50.432;8.680;2023-06-10T08:28:19;9.33;;;7.17;;
5688;SDS011;2869;50.432;8.680;2023-06-10T08:30:46;9.37;;;7.50;;
5688;SDS011;2869;50.432;8.680;2023-06-10T08:33:14;10.30;;;6.77;;
5688;SDS011;2869;50.432;8.680;2023-06-10T08:35:40;10.57;;;7.17;;
5688;SDS011;2869;50.432;8.680;2023-06-10T08:38:07;9.73;;;7.10;;
5688;SDS011;2869;50.432;8.680;2023-06-10T08:40:34;8.70;;;6.87;;
5688;SDS011;2869;50.432;8.680;2023-06-10T08:43:02;11.97;;;7.07;;
5688;SDS011;2869;50.432;8.680;2023-06-10T08:45:33;9.73;;;7.03;;
5688;SDS011;2869;50.432;8.680;2023-06-10T08:48:01;9.33;;;7.30;;
5688;SDS011;2869;50.432;8.680;2023-06-10T08:50:32;7.30;;;6.60;;
5688;SDS011;2869;50.432;8.680;2023-06-10T08:53:01;11.83;;;6.73;;
5688;SDS011;2869;50.432;8.680;2023-06-10T08:55:30;8.80;;;7.60;;
5688;SDS011;2869;50.432;8.680;2023-06-10T08:57:59;9.40;;;7.20;;
5688;SDS011;2869;50.432;8.680;2023-06-10T09:00:26;7.67;;;6.87;;
5688;SDS011;2869;50.432;8.680;2023-06-10T09:02:54;11.70;;;6.87;;
5688;SDS011;2869;50.432;8.680;2023-06-10T09:05:21;10.93;;;7.17;;
5688;SDS011;2869;50.432;8.680;2023-06-10T09:07:49;8.43;;;6.90;;
5688;SDS011;2869;50.432;8.680;2023-06-10T09:10:19;11.43;;;7.20;;
5688;SDS011;2869;50.432;8.680;2023-06-10T09:12:45;12.00;;;7.30;;
5688;SDS011;2869;50.432;8.680;2023-06-10T09:15:12;11.37;;;6.63;;
5688;SDS011;2869;50.432;8.680;2023-06-10T09:17:39;9.80;;;7.10;;
5688;SDS011;2869;50.432;8.680;2023-06-10T09:20:07;9.43;;;7.30;;
5688;SDS011;2869;50.432;8.680;2023-06-10T09:22:34;8.20;;;7.03;;
5688;SDS011;2869;50.432;8.680;2023-06-10T09:25:05;10.03;;;6.57;;
5688;SDS011;2869;50.432;8.680;2023-06-10T09:27:40;11.07;;;7.03;;
5688;SDS011;2869;50.432;8.680;2023-06-10T09:30:11;8.60;;;6.10;;
5688;SDS011;2869;50.432;8.680;2023-06-10T09:32:51;8.77;;;6.83;;
5688;SDS011;2869;50.432;8.680;2023-06-10T09:35:19;8.63;;;6.97;;
5688;SDS011;2869;50.432;8.680;2023-06-10T09:37:45;12.00;;;7.20;;
5688;SDS011;2869;50.432;8.680;2023-06-10T09:40:13;9.50;;;7.50;;
5688;SDS011;2869;50.432;8.680;2023-06-10T09:42:40;7.60;;;6.43;;
5688;SDS011;2869;50.432;8.680;2023-06-10T09:45:07;13.97;;;6.33;;
5688;SDS011;2869;50.432;8.680;2023-06-10T09:47:34;7.10;;;6.50;;
5688;SDS011;2869;50.432;8.680;2023-06-10T09:50:00;10.27;;;6.80;;
5688;SDS011;2869;50.432;8.680;2023-06-10T09:52:28;8.10;;;6.80;;
5688;SDS011;2869;50.432;8.680;2023-06-10T09:54:58;7.90;;;6.33;;
5688;SDS011;2869;50.432;8.680;2023-06-10T09:57:29;7.93;;;7.17;;
5688;SDS011;2869;50.432;8.680;2023-06-10T09:59:58;8.20;;;5.50;;
5688;SDS011;2869;50.432;8.680;2023-06-10T10:02:25;10.40;;;7.17;;
5688;SDS011;2869;50.432;8.680;2023-06-10T10:04:52;7.40;;;6.63;;
5688;SDS011;2869;50.432;8.680;2023-06-10T10:07:18;7.87;;;6.83;;
5688;SDS011;2869;50.432;8.680;2023-06-10T10:09:45;10.90;;;6.80;;
5688;SDS011;2869;50.432;8.680;2023-06-10T10:12:13;7.10;;;6.17;;
5688;SDS011;2869;50.432;8.680;2023-06-10T10:14:43;7.90;;;6.30;;
5688;SDS011;2869;50.432;8.680;2023-06-10T10:17:14;8.97;;;6.53;;
5688;SDS011;2869;50.432;8.680;2023-06-10T10:19:43;8.33;;;7.07;;
5688;SDS011;2869;50.432;8.680;2023-06-10T10:22:15;8.07;;;6.40;;
5688;SDS011;2869;50.432;8.680;2023-06-10T10:24:49;12.43;;;6.90;;
5688;SDS011;2869;50.432;8.680;2023-06-10T10:27:17;11.43;;;6.40;;
5688;SDS011;2869;50.432;8.680;2023-06-10T10:29:49;7.00;;;6.37;;
5688;SDS011;2869;50.432;8.680;2023-06-10T10:32:18;7.23;;;6.40;;
5688;SDS011;2869;50.432;8.680;2023-06-10T10:34:48;10.23;;;6.60;;
5688;SDS011;2869;50.432;8.680;2023-06-10T10:37:19;6.93;;;6.10;;
5688;SDS011;2869;50.432;8.680;2023-06-10T10:39:46;10.83;;;5.40;;
5688;SDS011;2869;50.432;8.680;2023-06-10T10:42:13;9.77;;;5.20;;
5688;SDS011;2869;50.432;8.680;2023-06-10T10:44:41;15.10;;;6.43;;
5688;SDS011;2869;50.432;8.680;2023-06-10T10:47:10;6.90;;;5.65;;
5688;SDS011;2869;50.432;8.680;2023-06-10T10:49:39;9.95;;;5.43;;
5688;SDS011;2869;50.432;8.680;2023-06-10T10:52:11;6.50;;;5.80;;
5688;SDS011;2869;50.432;8.680;2023-06-10T10:54:39;8.47;;;5.97;;
5688;SDS011;2869;50.432;8.680;2023-06-10T10:57:10;6.80;;;5.80;;
5688;SDS011;2869;50.432;8.680;2023-06-10T10:59:44;8.27;;;5.80;;
5688;SDS011;2869;50.432;8.680;2023-06-10T11:02:17;8.50;;;5.23;;
5688;SDS011;2869;50.432;8.680;2023-06-10T11:04:44;5.47;;;4.97;;
5688;SDS011;2869;50.432;8.680;2023-06-10T11:07:12;6.80;;;5.70;;
5688;SDS011;2869;50.432;8.680;2023-06-10T11:09:40;9.83;;;5.13;;
5688;SDS011;2869;50.432;8.680;2023-06-10T11:12:24;12.63;;;5.50;;
5688;SDS011;2869;50.432;8.680;2023-06-10T11:14:53;6.07;;;5.53;;
5688;SDS011;2869;50.432;8.680;2023-06-10T11:17:22;8.33;;;5.30;;
5688;SDS011;2869;50.432;8.680;2023-06-10T11:19:50;7.23;;;4.80;;
5688;SDS011;2869;50.432;8.680;2023-06-10T11:22:17;6.53;;;5.90;;
5688;SDS011;2869;50.432;8.680;2023-06-10T11:24:47;12.43;;;4.80;;
5688;SDS011;2869;50.432;8.680;2023-06-10T11:27:14;8.10;;;4.40;;
5688;SDS011;2869;50.432;8.680;2023-06-10T11:29:54;9.50;;;4.37;;
5688;SDS011;2869;50.432;8.680;2023-06-10T11:32:23;5.70;;;5.10;;
5688;SDS011;2869;50.432;8.680;2023-06-10T11:34:55;7.70;;;4.83;;
5688;SDS011;2869;50.432;8.680;2023-06-10T11:37:22;5.70;;;4.60;;
5688;SDS011;2869;50.432;8.680;2023-06-10T11:39:51;8.30;;;5.17;;
5688;SDS011;2869;50.432;8.680;2023-06-10T11:42:18;9.50;;;4.80;;
5688;SDS011;2869;50.432;8.680;2023-06-10T11:44:47;7.73;;;5.50;;
5688;SDS011;2869;50.432;8.680;2023-06-10T11:47:15;6.17;;;5.57;;
5688;SDS011;2869;50.432;8.680;2023-06-10T11:49:43;6.80;;;4.50;;
5688;SDS011;2869;50.432;8.680;2023-06-10T11:52:10;5.63;;;5.00;;
5688;SDS011;2869;50.432;8.680;2023-06-10T11:54:37;6.40;;;4.97;;
5688;SDS011;2869;50.432;8.680;2023-06-10T11:57:04;9.70;;;5.37;;
5688;SDS011;2869;50.432;8.680;2023-06-10T11:59:33;7.87;;;5.20;;
5688;SDS011;2869;50.432;8.680;2023-06-10T12:02:00;5.73;;;5.13;;
5688;SDS011;2869;50.432;8.680;2023-06-10T12:04:26;11.20;;;5.70;;
5688;SDS011;2869;50.432;8.680;2023-06-10T12:06:54;7.30;;;5.43;;
5688;SDS011;2869;50.432;8.680;2023-06-10T12:09:22;10.32;;;4.80;;
5688;SDS011;2869;50.432;8.680;2023-06-10T12:11:50;12.80;;;4.90;;
5688;SDS011;2869;50.432;8.680;2023-06-10T12:17:22;6.50;;;5.27;;
5688;SDS011;2869;50.432;8.680;2023-06-10T12:19:50;7.73;;;5.57;;
5688;SDS011;2869;50.432;8.680;2023-06-10T12:22:18;11.73;;;5.50;;
5688;SDS011;2869;50.432;8.680;2023-06-10T12:24:45;6.33;;;5.50;;
5688;SDS011;2869;50.432;8.680;2023-06-10T12:27:24;4.90;;;4.50;;
5688;SDS011;2869;50.432;8.680;2023-06-10T12:29:51;6.00;;;5.40;;
5688;SDS011;2869;50.432;8.680;2023-06-10T12:32:19;10.97;;;5.50;;
5688;SDS011;2869;50.432;8.680;2023-06-10T12:34:47;8.27;;;4.70;;
5688;SDS011;2869;50.432;8.680;2023-06-10T12:37:14;8.30;;;5.60;;
5688;SDS011;2869;50.432;8.680;2023-06-10T12:39:43;9.73;;;5.50;;
5688;SDS011;2869;50.432;8.680;2023-06-10T12:42:18;7.60;;;5.17;;
5688;SDS011;2869;50.432;8.680;2023-06-10T12:44:52;6.63;;;5.40;;
5688;SDS011;2869;50.432;8.680;2023-06-10T12:47:20;6.33;;;5.73;;
5688;SDS011;2869;50.432;8.680;2023-06-10T12:49:54;6.57;;;5.23;;
5688;SDS011;2869;50.432;8.680;2023-06-10T12:52:21;6.13;;;4.70;;
5688;SDS011;2869;50.432;8.680;2023-06-10T12:54:49;6.47;;;5.45;;
5688;SDS011;2869;50.432;8.680;2023-06-10T12:57:16;6.20;;;5.60;;
5688;SDS011;2869;50.432;8.680;2023-06-10T12:59:44;8.50;;;5.30;;
5688;SDS011;2869;50.432;8.680;2023-06-10T13:02:15;7.80;;;5.13;;
5688;SDS011;2869;50.432;8.680;2023-06-10T13:04:43;6.27;;;5.43;;
5688;SDS011;2869;50.432;8.680;2023-06-10T13:07:09;6.03;;;5.13;;
5688;SDS011;2869;50.432;8.680;2023-06-10T13:09:36;6.13;;;5.53;;
5688;SDS011;2869;50.432;8.680;2023-06-10T13:12:05;8.07;;;4.87;;
5688;SDS011;2869;50.432;8.680;2023-06-10T13:14:32;6.37;;;5.60;;
5688;SDS011;2869;50.432;8.680;2023-06-10T13:16:59;8.83;;;5.60;;
5688;SDS011;2869;50.432;8.680;2023-06-10T13:19:26;5.43;;;4.93;;
5688;SDS011;2869;50.432;8.680;2023-06-10T13:21:52;8.03;;;4.90;;
5688;SDS011;2869;50.432;8.680;2023-06-10T13:24:19;5.70;;;5.20;;
5688;SDS011;2869;50.432;8.680;2023-06-10T13:26:46;7.80;;;5.40;;
5688;SDS011;2869;50.432;8.680;2023-06-10T13:29:15;7.80;;;5.17;;
5688;SDS011;2869;50.432;8.680;2023-06-10T13:31:41;10.27;;;5.50;;
5688;SDS011;2869;50.432;8.680;2023-06-10T13:34:08;5.43;;;5.03;;
5688;SDS011;2869;50.432;8.680;2023-06-10T13:36:35;6.10;;;5.50;;
5688;SDS011;2869;50.432;8.680;2023-06-10T13:39:02;6.77;;;5.40;;
5688;SDS011;2869;50.432;8.680;2023-06-10T13:41:29;6.33;;;5.63;;
5688;SDS011;2869;50.432;8.680;2023-06-10T13:43:56;6.37;;;5.40;;
5688;SDS011;2869;50.432;8.680;2023-06-10T13:46:24;6.00;;;5.27;;
5688;SDS011;2869;50.432;8.680;2023-06-10T13:48:51;6.50;;;5.83;;
5688;SDS011;2869;50.432;8.680;2023-06-10T13:51:18;9.03;;;5.20;;
5688;SDS011;2869;50.432;8.680;2023-06-10T13:53:44;6.17;;;5.30;;
5688;SDS011;2869;50.432;8.680;2023-06-10T13:56:11;7.70;;;5.60;;
5688;SDS011;2869;50.432;8.680;2023-06-10T13:58:39;6.60;;;5.63;;
5688;SDS011;2869;50.432;8.680;2023-06-10T14:01:07;9.83;;;5.13;;
5688;SDS011;2869;50.432;8.680;2023-06-10T14:03:35;6.47;;;5.43;;
5688;SDS011;2869;50.432;8.680;2023-06-10T14:06:02;8.20;;;5.80;;
5688;SDS011;2869;50.432;8.680;2023-06-10T14:08:29;5.80;;;5.17;;
5688;SDS011;2869;50.432;8.680;2023-06-10T14:10:55;6.03;;;5.43;;
5688;SDS011;2869;50.432;8.680;2023-06-10T14:13:22;8.17;;;5.40;;
5688;SDS011;2869;50.432;8.680;2023-06-10T14:15:49;5.40;;;4.80;;
5688;SDS011;2869;50.432;8.680;2023-06-10T14:18:15;5.77;;;5.13;;
5688;SDS011;2869;50.432;8.680;2023-06-10T14:20:43;6.10;;;5.60;;
5688;SDS011;2869;50.432;8.680;2023-06-10T14:23:10;8.13;;;5.00;;
5688;SDS011;2869;50.432;8.680;2023-06-10T14:25:37;5.83;;;5.37;;
5688;SDS011;2869;50.432;8.680;2023-06-10T14:28:03;6.23;;;5.57;;
5688;SDS011;2869;50.432;8.680;2023-06-10T14:30:30;6.20;;;5.47;;
5688;SDS011;2869;50.432;8.680;2023-06-10T14:32:57;9.47;;;5.20;;
5688;SDS011;2869;50.432;8.680;2023-06-10T14:35:23;5.63;;;5.10;;
5688;SDS011;2869;50.432;8.680;2023-06-10T14:37:51;5.87;;;5.27;;
5688;SDS011;2869;50.432;8.680;2023-06-10T14:40:18;5.63;;;5.13;;
5688;SDS011;2869;50.432;8.680;2023-06-10T14:42:46;10.50;;;4.83;;
5688;SDS011;2869;50.432;8.680;2023-06-10T14:45:13;7.53;;;5.80;;
5688;SDS011;2869;50.432;8.680;2023-06-10T14:47:40;5.03;;;4.60;;
5688;SDS011;2869;50.432;8.680;2023-06-10T14:50:06;11.33;;;5.80;;
5688;SDS011;2869;50.432;8.680;2023-06-10T14:52:34;7.23;;;5.20;;
5688;SDS011;2869;50.432;8.680;2023-06-10T14:55:02;5.13;;;4.73;;
5688;SDS011;2869;50.432;8.680;2023-06-10T14:57:29;5.23;;;4.70;;
5688;SDS011;2869;50.432;8.680;2023-06-10T14:59:56;5.13;;;4.73;;
5688;SDS011;2869;50.432;8.680;2023-06-10T15:02:22;5.70;;;5.20;;
5688;SDS011;2869;50.432;8.680;2023-06-10T15:04:49;6.10;;;5.20;;
5688;SDS011;2869;50.432;8.680;2023-06-10T15:07:15;7.23;;;5.23;;
5688;SDS011;2869;50.432;8.680;2023-06-10T15:09:42;6.73;;;5.10;;
5688;SDS011;2869;50.432;8.680;2023-06-10T15:12:11;7.00;;;5.07;;